createdAt,value
2022-07-31T00:01:02.365Z,70.26
2022-07-31T00:03:30.413Z,70.48
2022-07-31T00:05:58.389Z,70.68
2022-07-31T00:08:26.917Z,70.64
2022-07-31T00:10:55.222Z,70.73
2022-07-31T00:13:57.237Z,70.87
2022-07-31T00:16:11.913Z,70.91
2022-07-31T00:18:40.433Z,71.04
2022-07-31T00:21:08.727Z,71.22
2022-07-31T00:23:36.833Z,71.23
2022-07-31T00:26:05.146Z,71.21
2022-07-31T00:28:33.093Z,71.33
2022-07-31T00:31:01.398Z,71.54
2022-07-31T00:33:29.617Z,71.70
2022-07-31T00:35:57.573Z,71.82
2022-07-31T00:38:27.616Z,71.72
2022-07-31T00:40:55.942Z,71.61
2022-07-31T00:43:27.541Z,71.70
2022-07-31T00:45:59.500Z,71.59
2022-07-31T00:48:28.039Z,71.77
2022-07-31T00:50:56.838Z,71.68
2022-07-31T00:53:25.487Z,71.47
2022-07-31T00:55:54.062Z,71.38
2022-07-31T00:58:21.944Z,71.22
2022-07-31T01:00:51.388Z,71.24
2022-07-31T01:03:19.546Z,71.14
2022-07-31T01:05:47.586Z,70.94
2022-07-31T01:08:16.148Z,70.78
2022-07-31T01:10:58.218Z,70.46
2022-07-31T01:13:35.081Z,70.18
2022-07-31T01:16:06.487Z,69.81
2022-07-31T01:18:37.363Z,69.82
2022-07-31T01:21:12.395Z,69.73
2022-07-31T01:23:54.340Z,69.56
2022-07-31T01:26:51.068Z,69.57
2022-07-31T01:29:25.773Z,69.73
2022-07-31T01:31:54.414Z,69.65
2022-07-31T01:34:42.969Z,69.64
2022-07-31T01:37:39.833Z,69.71
2022-07-31T01:40:20.494Z,69.84
2022-07-31T01:42:59.034Z,69.95
2022-07-31T01:45:29.086Z,69.96
2022-07-31T01:47:58.505Z,70.28
2022-07-31T01:50:42.578Z,70.46
2022-07-31T01:53:16.555Z,70.54
2022-07-31T01:56:02.798Z,70.54
2022-07-31T01:58:43.080Z,70.50
2022-07-31T02:01:27.939Z,70.63
2022-07-31T02:03:57.623Z,70.79
2022-07-31T02:06:30.446Z,71.08
2022-07-31T02:09:00.997Z,70.93
2022-07-31T02:11:29.816Z,70.88
2022-07-31T02:13:59.998Z,70.93
2022-07-31T02:16:32.479Z,70.87
2022-07-31T02:19:09.153Z,70.89
2022-07-31T02:21:37.373Z,70.77
2022-07-31T02:24:07.500Z,70.80
2022-07-31T02:26:38.065Z,70.98
2022-07-31T02:29:20.071Z,70.89
2022-07-31T02:32:03.328Z,70.90
2022-07-31T02:34:35.010Z,70.96
2022-07-31T02:37:05.009Z,71.09
2022-07-31T02:39:36.065Z,71.32
2022-07-31T02:42:05.929Z,71.22
2022-07-31T02:44:34.929Z,71.29
2022-07-31T02:47:05.474Z,71.04
2022-07-31T02:49:35.048Z,71.17
2022-07-31T02:52:05.424Z,71.16
2022-07-31T02:54:35.611Z,71.11
2022-07-31T02:57:04.009Z,71.16
2022-07-31T02:59:32.329Z,71.53
2022-07-31T03:02:01.327Z,71.63
2022-07-31T03:04:30.849Z,71.71
2022-07-31T03:07:00.827Z,71.45
2022-07-31T03:09:30.764Z,71.40
2022-07-31T03:12:17.410Z,71.11
2022-07-31T03:14:46.974Z,71.15
2022-07-31T03:17:16.554Z,71.08
2022-07-31T03:19:44.784Z,71.03
2022-07-31T03:22:15.407Z,71.01
2022-07-31T03:24:44.718Z,70.96
2022-07-31T03:27:12.734Z,71.09
2022-07-31T03:29:43.269Z,71.04
2022-07-31T03:32:12.423Z,71.13
2022-07-31T03:34:41.006Z,71.13
2022-07-31T03:37:10.591Z,71.14
2022-07-31T03:39:39.232Z,70.96
2022-07-31T03:42:12.994Z,71.06
2022-07-31T03:44:48.534Z,71.01
2022-07-31T03:47:17.051Z,71.03
2022-07-31T03:49:46.098Z,70.87
2022-07-31T03:52:15.588Z,70.85
2022-07-31T03:54:44.369Z,70.82
2022-07-31T03:57:18.759Z,70.89
2022-07-31T03:59:54.581Z,71.01
2022-07-31T04:02:22.838Z,71.06
2022-07-31T04:04:55.710Z,70.99
2022-07-31T04:07:24.602Z,71.00
2022-07-31T04:09:52.732Z,71.14
2022-07-31T04:12:21.036Z,71.08
2022-07-31T04:14:49.683Z,71.26
2022-07-31T04:17:18.692Z,71.14
2022-07-31T04:19:49.627Z,71.23
2022-07-31T04:22:17.644Z,71.06
2022-07-31T04:24:45.901Z,71.06
2022-07-31T04:27:49.109Z,71.03
2022-07-31T04:30:19.008Z,70.90
2022-07-31T04:32:47.949Z,70.66
2022-07-31T04:35:22.399Z,70.56
2022-07-31T04:37:50.917Z,70.53
2022-07-31T04:40:21.779Z,70.34
2022-07-31T04:42:49.739Z,69.99
2022-07-31T04:45:17.805Z,69.93
2022-07-31T04:47:45.819Z,69.71
2022-07-31T04:50:14.433Z,70.12
2022-07-31T04:52:56.234Z,70.41
2022-07-31T04:55:25.156Z,70.56
2022-07-31T04:57:53.510Z,70.72
2022-07-31T05:00:22.363Z,70.58
2022-07-31T05:02:50.538Z,70.27
2022-07-31T05:05:19.339Z,70.48
2022-07-31T05:07:48.158Z,70.57
2022-07-31T05:10:40.189Z,69.89
2022-07-31T05:13:08.282Z,69.83
2022-07-31T05:15:36.366Z,69.88
2022-07-31T05:18:07.759Z,70.09
2022-07-31T05:20:47.961Z,69.95
2022-07-31T05:23:34.086Z,69.98
2022-07-31T05:26:10.709Z,69.73
2022-07-31T05:28:39.501Z,69.75
2022-07-31T05:31:09.870Z,69.65
2022-07-31T05:33:39.698Z,69.35
2022-07-31T05:36:08.457Z,69.30
2022-07-31T05:38:37.305Z,69.06
2022-07-31T05:41:23.980Z,68.63
2022-07-31T05:44:10.641Z,68.57
2022-07-31T05:46:42.576Z,68.39
2022-07-31T05:49:11.150Z,68.24
2022-07-31T05:51:43.229Z,68.17
2022-07-31T05:54:11.534Z,67.71
2022-07-31T05:56:58.220Z,67.31
2022-07-31T05:59:35.030Z,66.90
2022-07-31T06:02:04.311Z,66.81
2022-07-31T06:04:38.849Z,66.90
2022-07-31T06:07:06.982Z,66.46
2022-07-31T06:09:35.175Z,66.66
2022-07-31T06:12:03.825Z,66.63
2022-07-31T06:14:32.316Z,65.59
2022-07-31T06:17:43.733Z,65.07
2022-07-31T06:20:22.940Z,65.29
2022-07-31T06:22:51.265Z,65.08
2022-07-31T06:25:20.842Z,64.39
2022-07-31T06:27:55.018Z,64.15
2022-07-31T06:30:28.098Z,64.08
2022-07-31T06:32:56.505Z,63.86
2022-07-31T06:35:25.125Z,62.88
2022-07-31T06:38:11.825Z,62.62
2022-07-31T06:40:59.854Z,62.37
2022-07-31T06:43:36.512Z,61.49
2022-07-31T06:46:27.846Z,61.94
2022-07-31T06:49:33.863Z,62.41
2022-07-31T06:52:05.587Z,62.19
2022-07-31T06:54:34.553Z,62.08
2022-07-31T06:57:03.439Z,61.96
2022-07-31T06:59:40.028Z,61.66
2022-07-31T07:02:10.049Z,61.71
2022-07-31T07:05:04.443Z,60.62
2022-07-31T07:07:26.878Z,60.89
2022-07-31T07:10:00.506Z,60.89
2022-07-31T07:12:54.334Z,61.09
2022-07-31T07:15:23.319Z,60.88
2022-07-31T07:17:52.023Z,60.32
2022-07-31T07:20:31.043Z,60.08
2022-07-31T07:22:59.113Z,59.42
2022-07-31T07:25:36.860Z,59.56
2022-07-31T07:28:06.191Z,59.69
2022-07-31T07:30:34.947Z,59.30
2022-07-31T07:33:05.436Z,59.16
2022-07-31T07:35:34.230Z,58.97
2022-07-31T07:38:07.215Z,58.92
2022-07-31T07:40:38.431Z,57.96
2022-07-31T07:43:06.691Z,58.09
2022-07-31T07:45:35.341Z,58.21
2022-07-31T07:48:06.470Z,58.16
2022-07-31T07:51:06.047Z,57.34
2022-07-31T07:53:48.988Z,56.78
2022-07-31T07:56:20.128Z,56.69
2022-07-31T07:59:06.948Z,56.76
2022-07-31T08:02:21.441Z,56.84
2022-07-31T08:04:50.015Z,57.34
2022-07-31T08:07:42.853Z,57.79
2022-07-31T08:10:34.080Z,57.46
2022-07-31T08:13:09.343Z,56.93
2022-07-31T08:15:55.753Z,56.94
2022-07-31T08:18:28.908Z,56.91
2022-07-31T08:20:57.436Z,57.35
2022-07-31T08:23:25.379Z,57.45
2022-07-31T08:25:53.944Z,58.13
2022-07-31T08:28:27.065Z,58.69
2022-07-31T08:30:55.439Z,58.05
2022-07-31T08:33:24.765Z,58.40
2022-07-31T08:35:59.618Z,58.15
2022-07-31T08:38:28.845Z,57.72
2022-07-31T08:41:28.561Z,57.46
2022-07-31T08:44:02.222Z,57.03
2022-07-31T08:46:37.663Z,57.45
2022-07-31T08:49:07.800Z,57.47
2022-07-31T08:51:52.729Z,57.43
2022-07-31T08:54:44.090Z,57.12
2022-07-31T08:57:13.185Z,57.28
2022-07-31T08:59:42.377Z,57.16
2022-07-31T09:02:12.422Z,57.69
2022-07-31T09:04:53.002Z,57.61
2022-07-31T09:07:22.380Z,57.29
2022-07-31T09:09:52.274Z,57.42
2022-07-31T09:12:33.609Z,57.09
2022-07-31T09:15:21.159Z,56.82
2022-07-31T09:17:54.116Z,56.74
2022-07-31T09:20:26.395Z,56.20
2022-07-31T09:23:06.852Z,56.69
2022-07-31T09:25:36.266Z,57.07
2022-07-31T09:28:07.438Z,56.85
2022-07-31T09:30:36.257Z,56.93
2022-07-31T09:33:41.287Z,56.83
2022-07-31T09:36:25.646Z,56.58
2022-07-31T09:39:04.143Z,56.61
2022-07-31T09:41:55.804Z,56.86
2022-07-31T09:44:42.373Z,57.21
2022-07-31T09:47:39.865Z,57.75
2022-07-31T09:50:08.727Z,57.85
2022-07-31T09:52:37.161Z,58.27
2022-07-31T09:55:16.058Z,58.61
2022-07-31T09:57:56.088Z,58.95
2022-07-31T10:00:26.307Z,58.92
2022-07-31T10:02:56.151Z,58.56
2022-07-31T10:05:27.633Z,57.85
2022-07-31T10:08:00.243Z,57.81
2022-07-31T10:10:50.151Z,57.94
2022-07-31T10:13:28.162Z,57.70
2022-07-31T10:16:01.256Z,57.74
2022-07-31T10:18:53.206Z,57.69
2022-07-31T10:22:07.015Z,57.33
2022-07-31T10:24:43.443Z,57.57
2022-07-31T10:27:14.491Z,57.39
2022-07-31T10:29:44.560Z,56.86
2022-07-31T10:32:13.335Z,57.29
2022-07-31T10:35:08.014Z,57.10
2022-07-31T10:38:38.498Z,56.92
2022-07-31T10:41:43.459Z,57.07
2022-07-31T10:44:34.397Z,57.28
2022-07-31T10:47:35.843Z,57.43
2022-07-31T10:50:22.584Z,57.00
2022-07-31T10:53:11.224Z,56.68
2022-07-31T10:56:03.066Z,56.78
2022-07-31T10:58:56.680Z,57.06
2022-07-31T11:02:00.497Z,57.03
2022-07-31T11:04:46.615Z,56.70
2022-07-31T11:07:19.893Z,56.53
2022-07-31T11:10:22.226Z,55.72
2022-07-31T11:13:11.283Z,54.58
2022-07-31T11:16:15.019Z,53.06
2022-07-31T11:18:57.987Z,52.38
2022-07-31T11:21:39.749Z,51.96
2022-07-31T11:24:19.790Z,51.98
2022-07-31T11:26:50.733Z,52.51
2022-07-31T11:30:01.944Z,52.92
2022-07-31T11:32:25.988Z,53.32
2022-07-31T11:34:56.192Z,53.88
2022-07-31T11:37:39.485Z,54.17
2022-07-31T11:40:14.832Z,54.32
2022-07-31T11:42:46.148Z,53.92
2022-07-31T11:45:16.862Z,52.80
2022-07-31T11:48:12.262Z,52.07
2022-07-31T11:50:43.733Z,52.43
2022-07-31T11:53:12.477Z,53.08
2022-07-31T11:55:48.932Z,53.94
2022-07-31T11:58:19.804Z,54.40
2022-07-31T12:00:52.352Z,53.59
2022-07-31T12:03:25.038Z,53.35
2022-07-31T12:05:53.940Z,53.42
2022-07-31T12:08:24.219Z,53.65
2022-07-31T12:10:54.446Z,53.72
2022-07-31T12:13:23.746Z,53.73
2022-07-31T12:15:59.434Z,54.14
2022-07-31T12:18:29.482Z,55.02
2022-07-31T12:21:03.197Z,55.33
2022-07-31T12:24:10.704Z,55.00
2022-07-31T12:26:39.011Z,55.06
2022-07-31T12:29:09.740Z,55.70
2022-07-31T12:31:50.328Z,55.86
2022-07-31T12:34:41.199Z,55.91
2022-07-31T12:37:14.513Z,56.37
2022-07-31T12:40:00.905Z,56.28
2022-07-31T12:42:35.317Z,56.33
2022-07-31T12:45:18.493Z,55.99
2022-07-31T12:47:53.980Z,55.70
2022-07-31T12:50:24.985Z,55.12
2022-07-31T12:52:54.709Z,54.93
2022-07-31T12:55:22.899Z,56.18
2022-07-31T12:57:52.331Z,59.77
2022-07-31T13:00:23.483Z,61.02
2022-07-31T13:02:56.949Z,62.52
2022-07-31T13:05:25.483Z,63.19
2022-07-31T13:07:54.288Z,63.76
2022-07-31T13:10:24.622Z,64.21
2022-07-31T13:12:53.754Z,64.61
2022-07-31T13:15:29.940Z,64.74
2022-07-31T13:18:01.904Z,65.43
2022-07-31T13:20:31.076Z,66.04
2022-07-31T13:22:59.745Z,65.98
2022-07-31T13:25:31.249Z,65.70
2022-07-31T13:28:00.471Z,66.14
2022-07-31T13:30:29.023Z,65.57
2022-07-31T13:32:57.311Z,65.34
2022-07-31T13:35:28.323Z,64.40
2022-07-31T13:37:57.302Z,64.00
2022-07-31T13:40:44.637Z,64.28
2022-07-31T13:43:13.447Z,64.47
2022-07-31T13:45:42.125Z,64.45
2022-07-31T13:48:10.617Z,65.21
2022-07-31T13:50:42.199Z,66.12
2022-07-31T13:53:10.395Z,66.72
2022-07-31T13:55:38.674Z,67.01
2022-07-31T13:58:07.660Z,67.10
2022-07-31T14:00:35.875Z,67.62
2022-07-31T14:03:03.982Z,67.94
2022-07-31T14:05:39.882Z,68.00
2022-07-31T14:08:30.692Z,67.84
2022-07-31T14:10:57.358Z,67.39
2022-07-31T14:13:25.576Z,67.63
2022-07-31T14:15:53.579Z,67.32
2022-07-31T14:18:23.724Z,67.25
2022-07-31T14:20:52.616Z,67.14
2022-07-31T14:23:33.202Z,67.01
2022-07-31T14:26:03.045Z,66.49
2022-07-31T14:28:31.368Z,66.31
2022-07-31T14:30:59.991Z,66.22
2022-07-31T14:33:28.181Z,66.13
2022-07-31T14:35:56.200Z,65.90
2022-07-31T14:38:27.417Z,65.29
2022-07-31T14:40:56.148Z,65.39
2022-07-31T14:43:24.325Z,65.19
2022-07-31T14:45:52.409Z,65.28
2022-07-31T14:48:22.048Z,65.20
2022-07-31T14:50:50.523Z,64.77
2022-07-31T14:53:18.729Z,64.39
2022-07-31T14:55:46.971Z,64.40
2022-07-31T14:58:14.861Z,64.24
2022-07-31T15:00:43.621Z,63.95
2022-07-31T15:03:12.254Z,64.19
2022-07-31T15:06:41.932Z,64.25
2022-07-31T15:08:30.267Z,64.16
2022-07-31T15:10:58.239Z,63.68
2022-07-31T15:13:26.423Z,63.46
2022-07-31T15:15:54.767Z,63.40
2022-07-31T15:18:25.716Z,63.29
2022-07-31T15:20:54.431Z,63.31
2022-07-31T15:23:22.650Z,63.03
2022-07-31T15:25:50.881Z,62.09
2022-07-31T15:28:18.725Z,61.54
2022-07-31T15:30:46.953Z,61.42
2022-07-31T15:33:15.797Z,61.34
2022-07-31T15:35:43.911Z,61.11
2022-07-31T15:38:11.951Z,60.72
2022-07-31T15:40:40.576Z,60.10
2022-07-31T15:43:08.710Z,59.89
2022-07-31T15:45:37.208Z,59.93
2022-07-31T15:48:09.820Z,60.15
2022-07-31T15:50:38.648Z,60.03
2022-07-31T15:53:06.606Z,59.58
2022-07-31T15:55:34.685Z,59.28
2022-07-31T15:58:02.850Z,59.32
2022-07-31T16:00:31.208Z,59.10
2022-07-31T16:02:59.875Z,59.07
2022-07-31T16:05:36.886Z,59.04
2022-07-31T16:08:30.537Z,58.86
2022-07-31T16:10:57.202Z,58.66
2022-07-31T16:13:25.422Z,58.21
2022-07-31T16:15:53.993Z,57.70
2022-07-31T16:18:22.183Z,57.30
2022-07-31T16:20:50.112Z,57.21
2022-07-31T16:23:18.510Z,57.48
2022-07-31T16:25:46.569Z,57.12
2022-07-31T16:28:15.117Z,57.22
2022-07-31T16:30:45.715Z,56.84
2022-07-31T16:33:14.303Z,56.77
2022-07-31T16:35:42.323Z,56.13
2022-07-31T16:38:10.533Z,55.73
2022-07-31T16:40:38.896Z,55.73
2022-07-31T16:43:49.626Z,55.29
2022-07-31T16:45:56.798Z,54.06
2022-07-31T16:48:25.079Z,53.50
2022-07-31T16:50:54.837Z,52.30
2022-07-31T16:54:11.441Z,52.37
2022-07-31T16:56:13.574Z,51.81
2022-07-31T16:58:41.924Z,51.98
2022-07-31T17:01:58.064Z,52.26
2022-07-31T17:04:03.519Z,52.20
2022-07-31T17:06:37.514Z,52.71
2022-07-31T17:09:16.962Z,52.88
2022-07-31T17:11:50.697Z,52.73
2022-07-31T17:14:20.695Z,52.78
2022-07-31T17:16:50.113Z,52.83
2022-07-31T17:19:41.108Z,52.97
2022-07-31T17:22:11.373Z,53.18
2022-07-31T17:24:39.940Z,53.36
2022-07-31T17:27:09.965Z,53.70
2022-07-31T17:29:39.352Z,53.99
2022-07-31T17:32:07.894Z,53.87
2022-07-31T17:34:39.993Z,54.25
2022-07-31T17:37:08.826Z,54.46
2022-07-31T17:39:37.459Z,54.71
2022-07-31T17:42:05.937Z,55.05
2022-07-31T17:44:39.972Z,55.23
2022-07-31T17:47:08.950Z,55.25
2022-07-31T17:49:38.121Z,55.31
2022-07-31T17:52:06.952Z,55.12
2022-07-31T17:54:35.265Z,55.25
2022-07-31T17:57:05.049Z,55.18
2022-07-31T17:59:33.684Z,55.35
2022-07-31T18:02:04.249Z,55.55
2022-07-31T18:04:34.831Z,55.62
2022-07-31T18:07:05.615Z,55.85
2022-07-31T18:09:34.160Z,55.80
2022-07-31T18:12:03.192Z,56.01
2022-07-31T18:14:31.463Z,56.10
2022-07-31T18:16:59.858Z,56.29
2022-07-31T18:19:28.559Z,56.59
2022-07-31T18:21:57.120Z,56.65
2022-07-31T18:24:25.720Z,56.70
2022-07-31T18:26:54.084Z,56.81
2022-07-31T18:29:22.746Z,57.26
2022-07-31T18:31:51.214Z,57.30
2022-07-31T18:34:19.377Z,57.49
2022-07-31T18:36:54.642Z,57.37
2022-07-31T18:39:24.370Z,57.34
2022-07-31T18:41:53.088Z,57.22
2022-07-31T18:44:22.061Z,57.45
2022-07-31T18:46:50.732Z,57.72
2022-07-31T18:50:58.699Z,57.97
2022-07-31T18:52:09.594Z,58.02
2022-07-31T18:54:38.629Z,58.03
2022-07-31T18:57:07.911Z,58.09
2022-07-31T18:59:36.625Z,58.24
2022-07-31T19:02:06.101Z,58.10
2022-07-31T19:04:40.025Z,57.98
2022-07-31T19:07:08.042Z,58.11
2022-07-31T19:09:36.441Z,58.17
2022-07-31T19:12:08.228Z,58.46
2022-07-31T19:14:37.019Z,58.51
2022-07-31T19:17:07.035Z,58.54
2022-07-31T19:19:52.768Z,58.69
2022-07-31T19:22:23.647Z,59.08
2022-07-31T19:24:52.299Z,59.37
2022-07-31T19:27:21.239Z,59.53
2022-07-31T19:29:49.458Z,59.62
2022-07-31T19:32:17.556Z,59.63
2022-07-31T19:34:48.028Z,59.55
2022-07-31T19:37:18.465Z,59.63
2022-07-31T19:39:47.125Z,59.81
2022-07-31T19:42:15.109Z,59.93
2022-07-31T19:44:43.707Z,60.01
2022-07-31T19:47:12.067Z,59.90
2022-07-31T19:49:41.288Z,59.82
2022-07-31T19:52:09.907Z,59.94
2022-07-31T19:54:40.044Z,59.73
2022-07-31T19:57:08.023Z,59.71
2022-07-31T19:59:35.924Z,59.78
2022-07-31T20:02:04.462Z,60.06
2022-07-31T20:04:33.070Z,60.24
2022-07-31T20:07:00.972Z,60.27
2022-07-31T20:09:31.210Z,60.15
2022-07-31T20:11:59.623Z,59.97
2022-07-31T20:14:27.976Z,60.16
2022-07-31T20:16:55.940Z,60.22
2022-07-31T20:19:24.489Z,60.20
2022-07-31T20:21:52.592Z,60.17
2022-07-31T20:24:20.513Z,60.07
2022-07-31T20:26:48.942Z,60.08
2022-07-31T20:29:17.059Z,60.18
2022-07-31T20:31:45.305Z,60.11
2022-07-31T20:34:13.818Z,60.11
2022-07-31T20:36:42.419Z,60.06
2022-07-31T20:39:10.254Z,60.25
2022-07-31T20:41:38.547Z,60.25
2022-07-31T20:44:07.234Z,60.23
2022-07-31T20:46:35.245Z,60.33
2022-07-31T20:49:04.189Z,60.45
2022-07-31T20:51:32.233Z,60.36
2022-07-31T20:54:01.053Z,60.27
2022-07-31T20:56:29.305Z,60.65
2022-07-31T20:58:57.271Z,60.82
2022-07-31T21:01:26.424Z,61.01
2022-07-31T21:03:55.088Z,61.07
2022-07-31T21:06:23.231Z,61.14
2022-07-31T21:08:51.288Z,61.23
2022-07-31T21:11:20.464Z,61.23
2022-07-31T21:13:48.667Z,61.48
2022-07-31T21:16:18.471Z,61.68
2022-07-31T21:18:48.001Z,61.76
2022-07-31T21:21:16.018Z,61.98
2022-07-31T21:23:46.204Z,62.19
2022-07-31T21:26:16.230Z,62.26
2022-07-31T21:28:45.510Z,62.50
2022-07-31T21:31:13.617Z,62.43
2022-07-31T21:33:41.962Z,62.23
2022-07-31T21:36:12.659Z,62.50
2022-07-31T21:38:42.250Z,62.49
2022-07-31T21:41:10.552Z,62.60
2022-07-31T21:43:58.166Z,62.71
2022-07-31T21:46:28.998Z,62.47
2022-07-31T21:48:57.542Z,62.28
2022-07-31T21:51:25.887Z,62.51
2022-07-31T21:53:54.614Z,62.53
2022-07-31T21:56:22.673Z,62.73
2022-07-31T21:58:51.115Z,62.89
2022-07-31T22:01:19.401Z,63.10
2022-07-31T22:03:47.732Z,63.23
2022-07-31T22:06:34.263Z,63.26
2022-07-31T22:09:11.206Z,63.43
2022-07-31T22:11:39.522Z,63.49
2022-07-31T22:14:08.997Z,63.47
2022-07-31T22:16:38.089Z,63.60
2022-07-31T22:19:24.189Z,63.81
2022-07-31T22:21:53.006Z,63.98
2022-07-31T22:24:21.429Z,64.05
2022-07-31T22:27:11.813Z,64.01
2022-07-31T22:29:43.479Z,64.13
2022-07-31T22:32:12.178Z,64.05
2022-07-31T22:34:40.444Z,64.15
2022-07-31T22:37:09.911Z,64.23
2022-07-31T22:39:39.785Z,64.34
2022-07-31T22:42:09.355Z,64.45
2022-07-31T22:44:38.774Z,64.47
2022-07-31T22:47:07.481Z,64.42
2022-07-31T22:49:36.891Z,64.48
2022-07-31T22:52:07.382Z,64.50
2022-07-31T22:54:35.469Z,64.84
2022-07-31T22:57:03.633Z,64.90
2022-07-31T22:59:31.733Z,64.93
2022-07-31T23:02:04.362Z,65.03
2022-07-31T23:04:33.690Z,65.21
2022-07-31T23:07:01.939Z,65.32
2022-07-31T23:09:31.258Z,65.47
2022-07-31T23:12:00.437Z,65.47
2022-07-31T23:14:30.365Z,65.63
2022-07-31T23:16:59.624Z,65.60
2022-07-31T23:19:28.047Z,65.81
2022-07-31T23:21:56.284Z,65.63
2022-07-31T23:24:24.177Z,65.66
2022-07-31T23:26:52.274Z,65.82
2022-07-31T23:29:20.354Z,65.87
2022-07-31T23:31:48.984Z,66.19
2022-07-31T23:34:17.953Z,66.30
2022-07-31T23:36:46.231Z,66.51
2022-07-31T23:39:14.613Z,66.44
2022-07-31T23:42:00.801Z,66.78
2022-07-31T23:44:29.061Z,66.83
2022-07-31T23:46:57.346Z,67.30
2022-07-31T23:49:25.358Z,67.45
2022-07-31T23:51:53.432Z,67.58
2022-07-31T23:54:21.547Z,67.57
2022-07-31T23:56:49.451Z,67.69
2022-07-31T23:59:17.593Z,67.78
